createdAt,value
2022-09-12T00:01:15.110Z,16.10
2022-09-12T00:03:42.248Z,16.10
2022-09-12T00:06:12.337Z,16.10
2022-09-12T00:08:39.487Z,16.00
2022-09-12T00:11:11.277Z,16.00
2022-09-12T00:13:41.806Z,16.10
2022-09-12T00:16:24.548Z,16.10
2022-09-12T00:18:52.838Z,16.00
2022-09-12T00:21:19.910Z,16.00
2022-09-12T00:23:47.296Z,15.90
2022-09-12T00:26:17.074Z,16.00
2022-09-12T00:28:45.063Z,15.90
2022-09-12T00:31:18.570Z,15.90
2022-09-12T00:33:45.307Z,15.80
2022-09-12T00:36:22.612Z,15.80
2022-09-12T00:38:51.140Z,15.70
2022-09-12T00:41:22.234Z,15.70
2022-09-12T00:44:01.041Z,15.70
2022-09-12T00:46:47.402Z,15.60
2022-09-12T00:49:42.319Z,15.60
2022-09-12T00:52:13.194Z,15.50
2022-09-12T00:54:50.005Z,15.50
2022-09-12T00:57:17.817Z,15.50
2022-09-12T00:59:53.054Z,15.40
2022-09-12T01:02:21.323Z,15.30
2022-09-12T01:04:48.725Z,15.30
2022-09-12T01:07:16.069Z,15.30
2022-09-12T01:09:45.313Z,15.20
2022-09-12T01:12:14.625Z,15.20
2022-09-12T01:14:41.580Z,15.20
2022-09-12T01:17:12.717Z,15.10
2022-09-12T01:19:42.217Z,15.10
2022-09-12T01:22:24.243Z,15.00
2022-09-12T01:24:59.493Z,15.00
2022-09-12T01:27:44.538Z,15.00
2022-09-12T01:30:23.080Z,14.90
2022-09-12T01:33:11.045Z,14.90
2022-09-12T01:35:48.573Z,14.90
2022-09-12T01:38:46.915Z,14.90
2022-09-12T01:41:16.597Z,14.90
2022-09-12T01:44:02.576Z,14.90
2022-09-12T01:46:47.034Z,14.90
2022-09-12T01:49:21.845Z,14.80
2022-09-12T01:51:56.765Z,14.80
2022-09-12T01:54:43.505Z,14.80
2022-09-12T01:57:42.162Z,14.80
2022-09-12T02:00:13.118Z,14.80
2022-09-12T02:02:51.857Z,14.70
2022-09-12T02:05:39.686Z,14.70
2022-09-12T02:08:11.903Z,14.70
2022-09-12T02:10:58.048Z,14.70
2022-09-12T02:13:41.202Z,14.70
2022-09-12T02:16:22.421Z,14.60
2022-09-12T02:19:00.512Z,14.70
2022-09-12T02:21:32.809Z,14.60
2022-09-12T02:24:02.973Z,14.60
2022-09-12T02:26:44.888Z,14.60
2022-09-12T02:29:11.770Z,14.60
2022-09-12T02:31:59.446Z,14.60
2022-09-12T02:34:46.420Z,14.50
2022-09-12T02:37:45.689Z,14.50
2022-09-12T02:40:13.405Z,14.50
2022-09-12T02:42:40.213Z,14.50
2022-09-12T02:45:08.147Z,14.50
2022-09-12T02:48:00.092Z,14.50
2022-09-12T02:50:27.743Z,14.40
2022-09-12T02:52:55.588Z,14.40
2022-09-12T02:55:24.717Z,14.40
2022-09-12T02:57:51.417Z,14.40
2022-09-12T03:00:18.441Z,14.40
2022-09-12T03:02:53.693Z,14.40
2022-09-12T03:05:47.250Z,14.30
2022-09-12T03:08:55.599Z,14.30
2022-09-12T03:11:36.172Z,14.30
2022-09-12T03:14:13.249Z,14.30
2022-09-12T03:16:59.098Z,14.30
2022-09-12T03:19:35.335Z,14.30
2022-09-12T03:22:27.484Z,14.30
2022-09-12T03:25:05.665Z,14.30
2022-09-12T03:27:42.876Z,14.30
2022-09-12T03:30:10.891Z,14.30
2022-09-12T03:32:43.032Z,14.20
2022-09-12T03:35:11.437Z,14.20
2022-09-12T03:37:38.488Z,14.20
2022-09-12T03:40:09.009Z,14.20
2022-09-12T03:42:35.881Z,14.20
2022-09-12T03:45:02.581Z,14.20
2022-09-12T03:47:29.345Z,14.20
2022-09-12T03:49:56.050Z,14.20
2022-09-12T03:52:23.174Z,14.20
2022-09-12T03:54:50.170Z,14.20
2022-09-12T03:57:17.060Z,14.20
2022-09-12T03:59:43.803Z,14.20
2022-09-12T04:02:13.292Z,14.20
2022-09-12T04:04:44.114Z,14.20
2022-09-12T04:07:11.517Z,14.20
2022-09-12T04:09:38.811Z,14.20
2022-09-12T04:12:06.014Z,14.20
2022-09-12T04:14:32.795Z,14.20
2022-09-12T04:17:00.471Z,14.20
2022-09-12T04:19:27.645Z,14.10
2022-09-12T04:21:54.809Z,14.10
2022-09-12T04:24:21.489Z,14.10
2022-09-12T04:26:48.483Z,14.10
2022-09-12T04:29:15.324Z,14.10
2022-09-12T04:31:42.927Z,14.00
2022-09-12T04:34:09.856Z,14.10
2022-09-12T04:36:36.697Z,14.00
2022-09-12T04:39:04.816Z,14.00
2022-09-12T04:41:35.525Z,14.00
2022-09-12T04:44:05.950Z,14.00
2022-09-12T04:46:36.038Z,14.00
2022-09-12T04:49:03.642Z,14.00
2022-09-12T04:51:35.904Z,14.00
2022-09-12T04:54:10.913Z,14.00
2022-09-12T04:56:40.908Z,14.00
2022-09-12T04:59:08.776Z,14.00
2022-09-12T05:01:35.808Z,14.00
2022-09-12T05:04:03.772Z,14.00
2022-09-12T05:06:32.917Z,14.00
2022-09-12T05:09:01.912Z,14.00
2022-09-12T05:12:02.053Z,14.00
2022-09-12T05:14:21.009Z,14.00
2022-09-12T05:16:49.540Z,14.10
2022-09-12T05:36:50.165Z,14.00
2022-09-12T05:39:18.497Z,14.00
2022-09-12T05:41:45.162Z,14.00
2022-09-12T05:44:14.009Z,14.00
2022-09-12T05:46:45.450Z,14.10
2022-09-12T05:49:13.369Z,14.10
2022-09-12T05:51:45.312Z,14.10
2022-09-12T05:54:14.718Z,14.10
2022-09-12T05:56:43.058Z,14.20
2022-09-12T05:59:18.746Z,14.20
2022-09-12T06:07:09.086Z,14.30
2022-09-12T06:09:35.276Z,14.40
2022-09-12T06:12:01.681Z,14.40
2022-09-12T06:14:27.884Z,14.50
2022-09-12T06:16:54.185Z,14.50
2022-09-12T06:19:23.183Z,14.60
2022-09-12T06:21:49.205Z,14.60
2022-09-12T06:27:05.038Z,14.70
2022-09-12T06:29:32.110Z,14.70
2022-09-12T06:31:58.156Z,14.70
2022-09-12T06:34:26.342Z,14.70
2022-09-12T06:36:52.588Z,14.80
2022-09-12T06:39:20.357Z,14.90
2022-09-12T06:41:48.006Z,14.90
2022-09-12T06:49:17.091Z,15.10
2022-09-12T06:51:43.661Z,15.20
2022-09-12T06:54:13.291Z,15.20
2022-09-12T06:56:39.681Z,15.30
2022-09-12T06:59:05.986Z,15.30
2022-09-12T07:01:32.391Z,15.30
2022-09-12T07:04:00.306Z,15.40
2022-09-12T07:09:11.881Z,15.50
2022-09-12T07:11:40.473Z,15.50
2022-09-12T07:14:09.136Z,15.50
2022-09-12T07:16:36.136Z,15.50
2022-09-12T07:19:04.322Z,15.60
2022-09-12T07:21:31.013Z,15.70
2022-09-12T07:23:58.730Z,15.70
2022-09-12T07:26:27.853Z,15.70
2022-09-12T07:29:03.921Z,15.80
2022-09-12T07:31:43.062Z,15.80
2022-09-12T07:34:09.793Z,15.90
2022-09-12T07:36:37.115Z,16.00
2022-09-12T07:47:38.305Z,16.50
2022-09-12T07:50:05.430Z,16.60
2022-09-12T07:52:32.488Z,16.70
2022-09-12T07:54:59.247Z,16.80
2022-09-12T07:57:25.833Z,16.90
2022-09-12T07:59:53.435Z,17.00
2022-09-12T08:02:20.400Z,17.10
2022-09-12T08:04:48.743Z,17.20
2022-09-12T08:07:16.420Z,17.30
2022-09-12T08:09:43.150Z,17.50
2022-09-12T08:12:10.361Z,17.60
2022-09-12T08:14:37.052Z,17.70
2022-09-12T08:17:03.880Z,17.90
2022-09-12T08:19:31.673Z,18.10
2022-09-12T08:21:58.509Z,18.30
2022-09-12T08:24:25.476Z,18.40
2022-09-12T08:26:52.082Z,18.50
2022-09-12T08:29:18.881Z,18.70
2022-09-12T08:31:46.671Z,18.90
2022-09-12T08:34:13.477Z,19.10
2022-09-12T08:36:41.048Z,19.40
2022-09-12T08:39:07.855Z,19.80
2022-09-12T08:41:46.388Z,20.20
2022-09-12T08:44:31.505Z,20.60
2022-09-12T08:47:17.113Z,21.00
2022-09-12T08:50:03.054Z,21.40
2022-09-12T08:52:58.445Z,21.80
2022-09-12T08:55:41.567Z,22.10
2022-09-12T08:58:16.971Z,22.40
2022-09-12T09:00:56.127Z,22.70
2022-09-12T09:03:50.996Z,23.00
2022-09-12T09:06:50.354Z,23.30
2022-09-12T09:09:31.400Z,23.70
2022-09-12T09:12:33.058Z,24.20
2022-09-12T09:15:22.212Z,24.70
2022-09-12T09:18:14.547Z,25.40
2022-09-12T09:20:57.485Z,25.80
2022-09-12T09:23:45.975Z,26.30
2022-09-12T09:26:27.374Z,26.70
2022-09-12T09:29:05.993Z,27.30
2022-09-12T09:31:37.731Z,27.80
2022-09-12T09:34:14.983Z,28.30
2022-09-12T09:36:56.910Z,28.90
2022-09-12T09:40:01.051Z,29.40
2022-09-12T09:43:04.765Z,30.00
2022-09-12T09:45:31.773Z,30.60
2022-09-12T09:48:12.089Z,31.10
2022-09-12T09:50:48.954Z,31.70
2022-09-12T09:53:46.172Z,32.30
2022-09-12T09:56:40.338Z,32.80
2022-09-12T09:59:17.490Z,33.40
2022-09-12T10:01:49.325Z,33.90
2022-09-12T10:04:22.539Z,34.30
2022-09-12T10:06:53.122Z,34.60
2022-09-12T10:09:23.877Z,35.00
2022-09-12T10:11:51.437Z,35.40
2022-09-12T10:14:40.375Z,35.70
2022-09-12T10:17:51.306Z,36.10
2022-09-12T10:20:46.453Z,36.40
2022-09-12T10:23:19.599Z,36.70
2022-09-12T10:25:56.390Z,37.00
2022-09-12T10:28:30.541Z,37.30
2022-09-12T10:30:59.910Z,37.50
2022-09-12T10:33:27.666Z,37.80
2022-09-12T10:35:55.199Z,38.20
2022-09-12T10:38:28.746Z,38.50
2022-09-12T10:41:04.526Z,38.70
2022-09-12T10:43:42.310Z,39.00
2022-09-12T10:46:17.982Z,39.30
2022-09-12T10:49:11.782Z,39.80
2022-09-12T10:51:38.742Z,40.00
2022-09-12T10:54:10.178Z,40.20
2022-09-12T10:56:47.175Z,40.40
2022-09-12T10:59:26.385Z,40.70
2022-09-12T11:01:58.669Z,40.90
2022-09-12T11:04:44.341Z,41.20
2022-09-12T11:07:29.508Z,41.50
2022-09-12T11:10:24.313Z,41.80
2022-09-12T11:13:14.182Z,42.10
2022-09-12T11:16:09.148Z,42.30
2022-09-12T11:18:53.773Z,42.40
2022-09-12T11:21:45.729Z,42.30
2022-09-12T11:24:42.760Z,42.10
2022-09-12T11:27:26.797Z,41.60
2022-09-12T11:30:06.799Z,41.30
2022-09-12T11:32:42.566Z,41.00
2022-09-12T11:35:27.335Z,40.90
2022-09-12T11:38:16.114Z,40.90
2022-09-12T11:40:54.123Z,40.90
2022-09-12T11:43:38.977Z,40.90
2022-09-12T11:46:13.424Z,41.00
2022-09-12T11:49:04.976Z,40.90
2022-09-12T11:51:41.265Z,40.90
2022-09-12T11:54:38.159Z,40.60
2022-09-12T11:57:26.318Z,40.40
2022-09-12T12:00:04.423Z,40.20
2022-09-12T12:02:55.988Z,40.00
2022-09-12T12:05:52.256Z,39.80
2022-09-12T12:08:23.771Z,39.70
2022-09-12T12:11:04.023Z,39.70
2022-09-12T12:13:35.200Z,39.80
2022-09-12T12:16:12.368Z,40.00
2022-09-12T12:18:40.475Z,40.10
2022-09-12T12:21:30.110Z,40.20
2022-09-12T12:24:08.997Z,40.20
2022-09-12T12:26:38.880Z,40.20
2022-09-12T12:29:17.350Z,40.20
2022-09-12T12:32:10.349Z,40.20
2022-09-12T12:34:42.350Z,40.10
2022-09-12T12:37:21.243Z,40.00
2022-09-12T12:39:48.066Z,39.90
2022-09-12T12:42:41.305Z,39.80
2022-09-12T12:45:26.673Z,39.60
2022-09-12T12:48:11.905Z,39.40
2022-09-12T12:50:39.202Z,39.40
2022-09-12T12:53:25.865Z,39.30
2022-09-12T12:55:54.719Z,39.20
2022-09-12T12:58:34.525Z,39.20
2022-09-12T13:01:22.848Z,39.20
2022-09-12T13:04:04.517Z,39.30
2022-09-12T13:06:59.193Z,39.40
2022-09-12T13:09:47.084Z,39.30
2022-09-12T13:12:26.361Z,39.20
2022-09-12T13:14:59.211Z,39.10
2022-09-12T13:17:41.760Z,39.10
2022-09-12T13:20:27.734Z,38.90
2022-09-12T13:22:55.477Z,38.80
2022-09-12T13:25:28.077Z,38.60
2022-09-12T13:28:02.431Z,38.40
2022-09-12T13:30:36.086Z,38.30
2022-09-12T13:33:20.853Z,38.30
2022-09-12T13:36:16.401Z,38.30
2022-09-12T13:39:04.961Z,38.30
2022-09-12T13:41:53.203Z,38.10
2022-09-12T13:44:21.715Z,38.00
2022-09-12T13:46:50.136Z,37.90
2022-09-12T13:49:28.468Z,37.90
2022-09-12T13:52:03.140Z,37.80
2022-09-12T13:54:31.566Z,37.70
2022-09-12T13:56:59.800Z,37.60
2022-09-12T13:59:26.643Z,37.50
2022-09-12T14:01:53.605Z,37.30
2022-09-12T14:04:43.861Z,37.30
2022-09-12T14:07:19.515Z,37.30
2022-09-12T14:09:54.142Z,37.30
2022-09-12T14:12:32.322Z,37.30
2022-09-12T14:14:59.301Z,37.20
2022-09-12T14:17:39.309Z,37.10
2022-09-12T14:20:12.016Z,37.10
2022-09-12T14:22:39.474Z,37.00
2022-09-12T14:25:08.922Z,37.00
2022-09-12T14:27:45.792Z,37.00
2022-09-12T14:30:30.405Z,37.10
2022-09-12T14:33:12.529Z,37.00
2022-09-12T14:35:51.446Z,37.00
2022-09-12T14:38:34.097Z,37.00
2022-09-12T14:41:06.395Z,36.80
2022-09-12T14:43:36.256Z,36.80
2022-09-12T14:46:07.327Z,36.70
2022-09-12T14:48:46.583Z,36.70
2022-09-12T14:51:22.536Z,36.60
2022-09-12T14:53:49.817Z,36.50
2022-09-12T14:56:17.354Z,36.30
2022-09-12T14:58:44.314Z,36.20
2022-09-12T15:01:11.041Z,36.00
2022-09-12T15:03:51.931Z,35.80
2022-09-12T15:06:31.918Z,35.70
2022-09-12T15:09:02.891Z,35.50
2022-09-12T15:11:29.670Z,35.40
2022-09-12T15:13:56.408Z,35.30
2022-09-12T15:16:23.290Z,35.20
2022-09-12T15:18:50.004Z,35.20
2022-09-12T15:21:19.023Z,35.20
2022-09-12T15:23:52.352Z,35.20
2022-09-12T15:26:26.366Z,35.10
2022-09-12T15:28:53.556Z,35.10
2022-09-12T15:31:31.347Z,35.10
2022-09-12T15:34:00.442Z,35.00
2022-09-12T15:36:28.707Z,35.00
2022-09-12T15:38:55.573Z,34.90
2022-09-12T15:41:26.554Z,34.80
2022-09-12T15:43:53.573Z,34.80
2022-09-12T15:46:20.424Z,34.70
2022-09-12T15:48:47.391Z,34.60
2022-09-12T15:51:21.061Z,34.60
2022-09-12T15:53:49.821Z,34.40
2022-09-12T15:56:18.448Z,34.40
2022-09-12T15:58:57.730Z,34.30
2022-09-12T16:01:26.173Z,34.30
2022-09-12T16:03:53.094Z,34.20
2022-09-12T16:06:19.728Z,34.10
2022-09-12T16:08:46.757Z,34.10
2022-09-12T16:11:19.697Z,34.00
2022-09-12T16:13:46.313Z,33.80
2022-09-12T16:16:13.285Z,33.60
2022-09-12T16:18:40.923Z,33.40
2022-09-12T16:21:11.432Z,33.10
2022-09-12T16:23:43.313Z,32.90
2022-09-12T16:26:09.925Z,32.60
2022-09-12T16:28:37.039Z,32.40
2022-09-12T16:31:06.095Z,32.20
2022-09-12T16:33:33.077Z,32.00
2022-09-12T16:36:11.575Z,31.90
2022-09-12T16:38:51.269Z,31.70
2022-09-12T16:41:20.153Z,31.50
2022-09-12T16:43:47.653Z,31.30
2022-09-12T16:46:21.236Z,31.20
2022-09-12T16:48:52.631Z,31.00
2022-09-12T16:51:23.502Z,30.90
2022-09-12T16:53:51.226Z,30.70
2022-09-12T16:56:18.471Z,30.60
2022-09-12T16:58:45.430Z,30.60
2022-09-12T17:01:18.534Z,30.40
2022-09-12T17:03:45.637Z,30.40
2022-09-12T17:06:15.254Z,30.20
2022-09-12T17:08:44.152Z,30.10
2022-09-12T17:11:23.142Z,30.00
2022-09-12T17:14:07.839Z,29.80
2022-09-12T17:16:37.634Z,29.70
2022-09-12T17:19:05.067Z,29.60
2022-09-12T17:21:32.183Z,29.40
2022-09-12T17:23:59.252Z,29.30
2022-09-12T17:26:26.688Z,29.10
2022-09-12T17:28:53.381Z,29.00
2022-09-12T17:31:20.624Z,28.80
2022-09-12T17:33:47.597Z,28.60
2022-09-12T17:36:17.652Z,28.50
2022-09-12T17:38:45.831Z,28.30
2022-09-12T17:41:24.870Z,28.10
2022-09-12T17:43:57.111Z,27.90
2022-09-12T17:46:26.993Z,27.80
2022-09-12T17:48:55.386Z,27.70
2022-09-12T17:51:25.049Z,27.50
2022-09-12T17:54:00.929Z,27.30
2022-09-12T17:56:30.026Z,27.10
2022-09-12T17:58:58.085Z,27.00
2022-09-12T18:01:43.871Z,26.80
2022-09-12T18:04:10.881Z,26.70
2022-09-12T18:06:37.836Z,26.50
2022-09-12T18:09:07.852Z,26.40
2022-09-12T18:11:35.322Z,26.30
2022-09-12T18:14:02.668Z,26.10
2022-09-12T18:16:31.319Z,25.90
2022-09-12T18:19:01.503Z,25.80
2022-09-12T18:21:29.279Z,25.60
2022-09-12T18:23:59.364Z,25.50
2022-09-12T18:26:27.837Z,25.30
2022-09-12T18:28:54.985Z,25.30
2022-09-12T18:31:24.592Z,25.10
2022-09-12T18:33:51.635Z,25.00
2022-09-12T18:36:19.323Z,24.80
2022-09-12T18:38:47.759Z,24.80
2022-09-12T18:41:17.833Z,24.60
2022-09-12T18:43:45.157Z,24.50
2022-09-12T18:46:14.537Z,24.40
2022-09-12T18:48:41.761Z,24.30
2022-09-12T18:51:10.933Z,24.20
2022-09-12T18:53:38.216Z,24.10
2022-09-12T18:56:10.268Z,24.00
2022-09-12T18:58:38.500Z,23.90
2022-09-12T19:01:23.008Z,23.80
2022-09-12T19:03:50.510Z,23.70
2022-09-12T19:06:22.479Z,23.60
2022-09-12T19:08:51.260Z,23.50
2022-09-12T19:11:18.830Z,23.40
2022-09-12T19:13:47.518Z,23.30
2022-09-12T19:16:17.760Z,23.20
2022-09-12T19:18:45.630Z,23.10
2022-09-12T19:21:17.866Z,23.10
2022-09-12T19:23:45.299Z,23.00
2022-09-12T19:26:14.000Z,22.90
2022-09-12T19:28:41.277Z,22.80
2022-09-12T19:31:13.943Z,22.80
2022-09-12T19:33:41.189Z,22.70
2022-09-12T19:36:22.249Z,22.60
2022-09-12T19:38:58.033Z,22.50
2022-09-12T19:41:24.938Z,22.50
2022-09-12T19:43:51.632Z,22.40
2022-09-12T19:46:22.947Z,22.30
2022-09-12T19:48:50.504Z,22.30
2022-09-12T19:51:17.787Z,22.20
2022-09-12T19:53:44.869Z,22.10
2022-09-12T19:56:13.879Z,22.10
2022-09-12T19:58:45.764Z,22.00
2022-09-12T20:01:24.722Z,21.90
2022-09-12T20:03:53.643Z,21.90
2022-09-12T20:06:20.928Z,21.80
2022-09-12T20:08:47.746Z,21.70
2022-09-12T20:11:17.660Z,21.70
2022-09-12T20:13:45.073Z,21.60
2022-09-12T20:16:24.448Z,21.60
2022-09-12T20:19:00.273Z,21.50
2022-09-12T20:21:31.695Z,21.50
2022-09-12T20:24:05.183Z,21.40
2022-09-12T20:26:32.569Z,21.40
2022-09-12T20:29:00.157Z,21.30
2022-09-12T20:31:27.011Z,21.20
2022-09-12T20:33:55.126Z,21.20
2022-09-12T20:36:22.606Z,21.10
2022-09-12T20:38:52.317Z,21.10
2022-09-12T20:41:20.805Z,21.00
2022-09-12T20:43:56.442Z,21.00
2022-09-12T20:46:25.271Z,20.90
2022-09-12T20:48:52.855Z,20.90
2022-09-12T20:51:22.940Z,20.80
2022-09-12T20:53:54.496Z,20.80
2022-09-12T20:56:22.071Z,20.70
2022-09-12T20:58:48.777Z,20.70
2022-09-12T21:01:16.712Z,20.60
2022-09-12T21:03:44.623Z,20.50
2022-09-12T21:06:12.880Z,20.50
2022-09-12T21:08:40.424Z,20.50
2022-09-12T21:11:07.396Z,20.40
2022-09-12T21:13:34.114Z,20.40
2022-09-12T21:16:03.178Z,20.30
2022-09-12T21:18:31.829Z,20.30
2022-09-12T21:20:59.345Z,20.30
2022-09-12T21:23:27.193Z,20.20
2022-09-12T21:25:53.973Z,20.20
2022-09-12T21:28:21.593Z,20.10
2022-09-12T21:30:48.954Z,20.10
2022-09-12T21:33:16.425Z,20.10
2022-09-12T21:35:43.369Z,20.00
2022-09-12T21:38:10.426Z,20.00
2022-09-12T21:40:37.233Z,20.00
2022-09-12T21:43:05.203Z,19.90
2022-09-12T21:45:34.123Z,19.90
2022-09-12T21:48:01.820Z,19.80
2022-09-12T21:50:28.461Z,19.70
2022-09-12T21:52:55.461Z,19.70
2022-09-12T21:55:26.913Z,19.70
2022-09-12T21:57:54.697Z,19.60
2022-09-12T22:00:22.272Z,19.60
2022-09-12T22:02:49.598Z,19.50
2022-09-12T22:05:17.251Z,19.50
2022-09-12T22:07:44.142Z,19.50
2022-09-12T22:10:11.200Z,19.40
2022-09-12T22:12:39.205Z,19.40
2022-09-12T22:15:29.369Z,19.40
2022-09-12T22:17:54.894Z,19.30
2022-09-12T22:20:21.715Z,19.20
2022-09-12T22:23:06.965Z,19.20
2022-09-12T22:25:33.905Z,19.20
2022-09-12T22:28:00.603Z,19.10
2022-09-12T22:30:27.946Z,19.10
2022-09-12T22:32:54.630Z,19.10
2022-09-12T22:35:21.356Z,19.00
2022-09-12T22:37:48.100Z,19.00
2022-09-12T22:40:15.741Z,19.00
2022-09-12T22:42:43.582Z,19.00
2022-09-12T22:45:10.636Z,18.90
2022-09-12T22:47:37.269Z,18.90
2022-09-12T22:50:04.397Z,18.90
2022-09-12T22:52:31.048Z,18.80
2022-09-12T22:54:59.084Z,18.80
2022-09-12T22:57:26.073Z,18.80
2022-09-12T22:59:52.737Z,18.70
2022-09-12T23:02:19.568Z,18.70
2022-09-12T23:04:46.895Z,18.60
2022-09-12T23:07:14.370Z,18.60
2022-09-12T23:09:41.268Z,18.50
2022-09-12T23:12:07.937Z,18.50
2022-09-12T23:14:34.708Z,18.50
2022-09-12T23:17:01.571Z,18.40
2022-09-12T23:19:28.214Z,18.40
2022-09-12T23:21:54.957Z,18.30
2022-09-12T23:24:21.798Z,18.30
2022-09-12T23:26:48.512Z,18.20
2022-09-12T23:29:15.684Z,18.20
2022-09-12T23:31:42.345Z,18.20
2022-09-12T23:34:10.374Z,18.10
2022-09-12T23:36:37.266Z,18.10
2022-09-12T23:39:04.070Z,18.10
2022-09-12T23:41:31.177Z,18.00
2022-09-12T23:43:57.938Z,18.00
2022-09-12T23:46:24.886Z,17.90
2022-09-12T23:48:53.422Z,17.90
2022-09-12T23:51:21.733Z,17.90
2022-09-12T23:53:48.932Z,17.90
2022-09-12T23:56:15.876Z,17.80
2022-09-12T23:58:43.113Z,17.80
